createdAt,value
2018-10-04T00:01:13.409Z,102118.40
2018-10-04T00:06:16.695Z,102114.94
2018-10-04T00:11:19.870Z,102122.78
2018-10-04T00:16:23.094Z,102122.46
2018-10-04T00:21:26.380Z,102123.59
2018-10-04T00:26:29.618Z,102118.09
2018-10-04T00:31:32.839Z,102121.77
2018-10-04T00:36:35.934Z,102120.59
2018-10-04T00:41:39.160Z,102119.09
2018-10-04T00:46:42.326Z,102133.75
2018-10-04T00:51:45.533Z,102141.75
2018-10-04T00:56:48.876Z,102136.28
2018-10-04T01:01:52.284Z,102133.73
2018-10-04T01:06:55.634Z,102131.24
2018-10-04T01:11:58.822Z,102127.12
2018-10-04T01:17:01.992Z,102120.67
2018-10-04T01:22:05.135Z,102130.71
2018-10-04T01:27:09.133Z,102134.97
2018-10-04T01:32:12.237Z,102128.76
2018-10-04T01:37:15.472Z,102121.25
2018-10-04T01:42:18.789Z,102127.03
2018-10-04T01:47:22.195Z,102123.88
2018-10-04T01:52:25.344Z,102122.55
2018-10-04T01:57:28.509Z,102123.64
2018-10-04T02:02:31.814Z,102120.63
2018-10-04T02:07:34.983Z,102117.61
2018-10-04T02:12:38.135Z,102124.08
2018-10-04T02:17:41.302Z,102116.09
2018-10-04T02:22:44.505Z,102120.95
2018-10-04T02:27:47.768Z,102127.12
2018-10-04T02:32:51.026Z,102130.89
2018-10-04T02:37:54.395Z,102122.38
2018-10-04T02:42:57.719Z,102130.87
2018-10-04T02:48:00.988Z,102117.41
2018-10-04T02:53:04.001Z,102114.00
2018-10-04T02:58:07.200Z,102126.23
2018-10-04T03:03:10.455Z,102132.55
2018-10-04T03:08:13.604Z,102140.67
2018-10-04T03:13:16.928Z,102135.70
2018-10-04T03:18:20.118Z,102145.98
2018-10-04T03:23:23.368Z,102145.77
2018-10-04T03:28:27.404Z,102141.38
2018-10-04T03:33:30.548Z,102134.13
2018-10-04T03:38:33.749Z,102137.30
2018-10-04T03:43:37.079Z,102137.66
2018-10-04T03:48:40.677Z,102139.86
2018-10-04T03:53:43.832Z,102135.60
2018-10-04T03:58:47.070Z,102135.23
2018-10-04T04:03:50.478Z,102136.17
2018-10-04T04:08:53.635Z,102137.72
2018-10-04T04:13:57.176Z,102138.98
2018-10-04T04:19:00.505Z,102143.30
2018-10-04T04:24:03.727Z,102136.10
2018-10-04T04:29:06.903Z,102147.20
2018-10-04T04:34:10.823Z,102152.42
2018-10-04T04:39:13.997Z,102156.13
2018-10-04T04:44:17.156Z,102165.64
2018-10-04T04:49:20.478Z,102168.48
2018-10-04T04:55:38.634Z,102180.47
2018-10-04T05:00:41.877Z,102180.95
2018-10-04T05:05:45.100Z,102182.71
2018-10-04T05:10:48.420Z,102193.20
2018-10-04T05:15:52.010Z,102190.59
2018-10-04T05:20:55.563Z,102199.20
2018-10-04T05:25:58.941Z,102204.43
2018-10-04T05:31:02.173Z,102202.30
2018-10-04T05:36:05.345Z,102212.30
2018-10-04T05:41:08.953Z,102221.38
2018-10-04T05:46:12.145Z,102228.32
2018-10-04T05:51:16.256Z,102229.30
2018-10-04T05:56:19.654Z,102229.81
2018-10-04T06:01:22.904Z,102225.58
2018-10-04T06:06:26.468Z,102217.83
2018-10-04T06:11:29.638Z,102226.25
2018-10-04T06:16:32.813Z,102240.58
2018-10-04T06:21:37.316Z,102246.54
2018-10-04T06:26:40.547Z,102245.44
2018-10-04T06:31:46.175Z,102256.98
2018-10-04T06:36:49.605Z,102251.38
2018-10-04T06:41:52.914Z,102250.41
2018-10-04T06:46:56.133Z,102255.42
2018-10-04T06:51:59.362Z,102243.96
2018-10-04T06:57:02.575Z,102247.72
2018-10-04T07:02:05.834Z,102250.55
2018-10-04T07:07:09.742Z,102245.75
2018-10-04T07:12:12.995Z,102252.20
2018-10-04T07:17:16.209Z,102265.23
2018-10-04T07:22:21.305Z,102271.09
2018-10-04T07:27:24.541Z,102276.95
2018-10-04T07:32:27.792Z,102282.52
2018-10-04T07:37:30.995Z,102291.50
2018-10-04T07:42:34.691Z,102289.60
2018-10-04T07:47:37.997Z,102279.34
2018-10-04T07:52:41.246Z,102281.39
2018-10-04T07:57:44.391Z,102282.75
2018-10-04T08:02:47.827Z,102290.63
2018-10-04T08:07:51.207Z,102290.00
2018-10-04T08:12:54.526Z,102289.47
2018-10-04T08:17:57.698Z,102293.11
2018-10-04T08:23:01.986Z,102301.70
2018-10-04T08:28:05.563Z,102294.78
2018-10-04T08:33:15.684Z,102304.09
2018-10-04T08:38:21.305Z,102309.73
2018-10-04T08:43:25.247Z,102302.37
2018-10-04T08:48:30.633Z,102308.17
2018-10-04T08:53:34.947Z,102306.80
2018-10-04T08:58:39.082Z,102307.30
2018-10-04T09:03:42.745Z,102308.48
2018-10-04T09:08:47.073Z,102301.52
2018-10-04T09:13:50.865Z,102304.83
2018-10-04T09:18:54.095Z,102305.16
2018-10-04T09:23:57.341Z,102303.95
2018-10-04T09:29:00.642Z,102304.38
2018-10-04T09:34:03.946Z,102309.92
2018-10-04T09:39:08.989Z,102308.20
2018-10-04T09:44:12.173Z,102312.14
2018-10-04T09:49:15.370Z,102306.98
2018-10-04T09:54:18.774Z,102308.72
2018-10-04T09:59:22.112Z,102303.92
2018-10-04T10:04:25.515Z,102307.08
2018-10-04T10:09:28.978Z,102294.91
2018-10-04T10:14:32.163Z,102303.72
2018-10-04T10:19:35.764Z,102300.78
2018-10-04T10:24:38.927Z,102296.34
2018-10-04T10:29:42.218Z,102290.78
2018-10-04T10:34:45.415Z,102294.92
2018-10-04T10:39:48.930Z,102298.81
2018-10-04T10:44:52.155Z,102293.28
2018-10-04T10:49:55.420Z,102294.02
2018-10-04T10:54:58.919Z,102283.34
2018-10-04T11:00:02.100Z,102283.45
2018-10-04T11:05:05.342Z,102286.19
2018-10-04T11:10:08.150Z,102274.13
2018-10-04T11:15:11.283Z,102281.22
2018-10-04T11:20:14.480Z,102273.98
2018-10-04T11:25:18.145Z,102269.06
2018-10-04T11:30:21.739Z,102263.31
2018-10-04T11:35:25.104Z,102256.12
2018-10-04T11:40:28.352Z,102252.81
2018-10-04T11:45:31.507Z,102256.59
2018-10-04T11:50:34.840Z,102260.69
2018-10-04T11:55:37.986Z,102262.47
2018-10-04T12:00:41.153Z,102251.99
2018-10-04T12:05:44.378Z,102255.95
2018-10-04T12:10:47.972Z,102252.36
2018-10-04T12:15:51.249Z,102251.98
2018-10-04T12:20:54.525Z,102252.09
2018-10-04T12:25:58.100Z,102253.64
2018-10-04T12:31:01.639Z,102250.94
2018-10-04T12:36:04.767Z,102244.19
2018-10-04T12:41:07.963Z,102238.92
2018-10-04T12:46:11.139Z,102229.09
2018-10-04T12:51:14.350Z,102220.18
2018-10-04T12:56:17.594Z,102230.86
2018-10-04T13:01:20.807Z,102232.12
2018-10-04T13:06:24.237Z,102226.58
2018-10-04T13:11:27.378Z,102225.06
2018-10-04T13:16:30.642Z,102229.20
2018-10-04T13:21:34.021Z,102228.96
2018-10-04T13:26:37.159Z,102240.36
2018-10-04T13:31:40.318Z,102226.11
2018-10-04T13:36:43.516Z,102225.38
2018-10-04T13:41:47.575Z,102227.59
2018-10-04T13:46:50.884Z,102230.08
2018-10-04T13:51:54.142Z,102227.05
2018-10-04T13:56:57.393Z,102228.83
2018-10-04T14:02:00.557Z,102221.18
2018-10-04T14:07:03.682Z,102215.28
2018-10-04T14:12:06.864Z,102216.05
2018-10-04T14:17:10.572Z,102211.12
2018-10-04T14:22:14.296Z,102211.83
2018-10-04T14:27:17.613Z,102208.39
2018-10-04T14:32:20.978Z,102199.58
2018-10-04T14:37:24.477Z,102200.13
2018-10-04T14:42:27.705Z,102196.08
2018-10-04T14:47:31.023Z,102196.92
2018-10-04T14:52:34.129Z,102192.25
2018-10-04T14:57:37.320Z,102188.88
2018-10-04T15:02:42.158Z,102195.64
2018-10-04T15:07:46.104Z,102192.06
2018-10-04T15:12:49.827Z,102197.66
2018-10-04T15:17:54.125Z,102196.30
2018-10-04T15:22:57.967Z,102193.22
2018-10-04T15:28:01.281Z,102191.18
2018-10-04T15:38:06.869Z,102178.87
2018-10-04T15:43:10.748Z,102178.17
2018-10-04T15:48:14.295Z,102172.23
2018-10-04T15:53:17.766Z,102175.77
2018-10-04T15:58:20.933Z,102173.00
2018-10-04T16:03:24.775Z,102180.23
2018-10-04T16:08:28.377Z,102176.66
2018-10-04T16:13:31.641Z,102184.04
2018-10-04T16:18:34.847Z,102174.59
2018-10-04T16:23:38.231Z,102171.41
2018-10-04T16:28:41.638Z,102165.16
2018-10-04T16:33:44.778Z,102165.26
2018-10-04T16:38:48.176Z,102163.75
2018-10-04T16:43:51.429Z,102171.93
2018-10-04T16:48:54.628Z,102173.00
2018-10-04T16:53:58.309Z,102170.62
2018-10-04T16:59:01.588Z,102170.67
2018-10-04T17:04:04.805Z,102177.03
2018-10-04T17:09:08.773Z,102179.49
2018-10-04T17:14:12.441Z,102173.53
2018-10-04T17:19:15.800Z,102176.99
2018-10-04T17:24:19.505Z,102187.69
2018-10-04T17:29:23.412Z,102180.77
2018-10-04T17:34:26.679Z,102184.02
2018-10-04T17:39:30.111Z,102183.68
2018-10-04T17:44:33.325Z,102189.25
2018-10-04T17:49:36.498Z,102184.62
2018-10-04T17:54:39.746Z,102184.44
2018-10-04T17:59:43.070Z,102184.38
2018-10-04T18:04:46.410Z,102185.82
2018-10-04T18:09:50.951Z,102189.16
2018-10-04T18:14:54.899Z,102189.09
2018-10-04T18:19:58.204Z,102188.88
2018-10-04T18:25:02.319Z,102195.48
2018-10-04T18:30:06.077Z,102193.80
2018-10-04T18:35:09.411Z,102189.89
2018-10-04T18:40:13.456Z,102182.94
2018-10-04T18:45:22.280Z,102191.77
2018-10-04T18:50:25.824Z,102196.59
2018-10-04T18:55:29.104Z,102201.91
2018-10-04T19:00:32.852Z,102192.99
2018-10-04T19:05:36.081Z,102191.84
2018-10-04T19:10:39.365Z,102192.06
2018-10-04T19:15:42.668Z,102193.11
2018-10-04T19:20:45.859Z,102200.86
2018-10-04T19:25:49.279Z,102203.05
2018-10-04T19:30:52.810Z,102204.09
2018-10-04T19:36:07.641Z,102201.35
2018-10-04T19:41:12.696Z,102198.67
2018-10-04T19:46:16.653Z,102205.19
2018-10-04T19:51:27.911Z,102196.42
2018-10-04T19:56:38.805Z,102193.47
2018-10-04T20:01:42.132Z,102191.46
2018-10-04T20:06:54.200Z,102202.56
2018-10-04T20:12:08.584Z,102196.83
2018-10-04T20:17:12.893Z,102196.28
2018-10-04T20:22:16.044Z,102192.75
2018-10-04T20:27:19.232Z,102190.91
2018-10-04T20:32:22.430Z,102182.36
2018-10-04T20:37:25.688Z,102182.23
2018-10-04T20:42:28.858Z,102170.77
2018-10-04T20:47:32.222Z,102176.63
2018-10-04T20:52:35.556Z,102175.78
2018-10-04T20:57:38.761Z,102172.74
2018-10-04T21:02:42.070Z,102165.70
2018-10-04T21:07:45.316Z,102174.25
2018-10-04T21:12:48.780Z,102165.70
2018-10-04T21:17:51.914Z,102168.66
2018-10-04T21:22:55.116Z,102171.21
2018-10-04T21:28:00.220Z,102167.67
2018-10-04T21:33:03.478Z,102174.69
2018-10-04T21:38:06.821Z,102162.69
2018-10-04T21:43:10.010Z,102168.19
2018-10-04T21:48:13.259Z,102161.16
2018-10-04T21:53:16.416Z,102169.48
2018-10-04T21:58:19.611Z,102163.42
2018-10-04T22:03:22.939Z,102178.32
2018-10-04T22:08:26.157Z,102169.97
2018-10-04T22:13:29.359Z,102175.28
2018-10-04T22:18:32.508Z,102164.41
2018-10-04T22:23:35.834Z,102165.75
2018-10-04T22:28:39.023Z,102164.34
2018-10-04T22:33:42.604Z,102167.11
2018-10-04T22:38:45.841Z,102167.00
2018-10-04T22:43:48.982Z,102158.86
2018-10-04T22:48:52.137Z,102150.70
2018-10-04T22:53:55.336Z,102158.79
2018-10-04T22:58:58.576Z,102169.41
2018-10-04T23:04:01.691Z,102164.19
2018-10-04T23:09:05.964Z,102167.20
2018-10-04T23:14:09.191Z,102161.69
2018-10-04T23:19:12.416Z,102164.17
2018-10-04T23:24:15.596Z,102163.22
2018-10-04T23:29:18.853Z,102158.27
2018-10-04T23:34:22.033Z,102149.02
2018-10-04T23:39:25.203Z,102149.68
2018-10-04T23:44:28.525Z,102152.89
2018-10-04T23:49:31.629Z,102150.70
2018-10-04T23:54:34.878Z,102149.47
2018-10-04T23:59:38.092Z,102146.17
